createdAt,value
2023-05-05T00:01:07.376Z,58.29
2023-05-05T00:03:38.597Z,58.96
2023-05-05T00:06:07.412Z,59.47
2023-05-05T00:08:35.794Z,59.73
2023-05-05T00:11:04.026Z,60.01
2023-05-05T00:13:32.338Z,60.42
2023-05-05T00:16:01.218Z,60.38
2023-05-05T00:18:30.431Z,60.56
2023-05-05T00:20:58.651Z,61.12
2023-05-05T00:23:26.904Z,61.05
2023-05-05T00:25:55.289Z,61.92
2023-05-05T00:28:23.583Z,61.66
2023-05-05T00:30:52.092Z,61.45
2023-05-05T00:33:20.452Z,61.65
2023-05-05T00:35:49.086Z,61.79
2023-05-05T00:38:17.618Z,62.20
2023-05-05T00:40:46.112Z,61.69
2023-05-05T00:43:14.937Z,61.50
2023-05-05T00:45:48.526Z,61.78
2023-05-05T00:48:18.712Z,61.55
2023-05-05T00:50:47.128Z,61.79
2023-05-05T00:53:15.459Z,62.17
2023-05-05T00:55:43.824Z,61.55
2023-05-05T00:58:14.156Z,61.99
2023-05-05T01:00:42.738Z,61.79
2023-05-05T01:03:11.307Z,61.98
2023-05-05T01:05:58.073Z,62.07
2023-05-05T01:08:29.369Z,61.72
2023-05-05T01:11:04.127Z,62.27
2023-05-05T01:13:44.231Z,62.27
2023-05-05T01:16:28.130Z,61.98
2023-05-05T01:19:16.555Z,61.96
2023-05-05T01:21:54.754Z,61.87
2023-05-05T01:24:31.427Z,61.69
2023-05-05T01:27:18.004Z,61.48
2023-05-05T01:30:07.650Z,61.79
2023-05-05T01:32:43.757Z,61.82
2023-05-05T01:35:34.172Z,62.07
2023-05-05T01:38:09.241Z,61.86
2023-05-05T01:40:45.206Z,61.96
2023-05-05T01:43:16.298Z,62.19
2023-05-05T01:45:47.140Z,62.34
2023-05-05T01:48:19.730Z,62.31
2023-05-05T01:50:49.909Z,62.28
2023-05-05T01:53:19.916Z,62.56
2023-05-05T01:55:50.569Z,61.95
2023-05-05T01:58:19.329Z,62.19
2023-05-05T02:00:48.798Z,62.11
2023-05-05T02:03:18.415Z,62.42
2023-05-05T02:05:50.360Z,62.06
2023-05-05T02:08:19.823Z,62.41
2023-05-05T02:10:50.376Z,62.26
2023-05-05T02:13:20.704Z,62.43
2023-05-05T02:15:51.826Z,62.58
2023-05-05T02:18:21.370Z,62.51
2023-05-05T02:20:49.782Z,62.55
2023-05-05T02:23:18.055Z,62.87
2023-05-05T02:25:54.340Z,62.45
2023-05-05T02:28:36.281Z,62.69
2023-05-05T02:31:08.261Z,62.95
2023-05-05T02:33:38.420Z,62.86
2023-05-05T02:36:19.391Z,63.02
2023-05-05T02:38:50.824Z,63.08
2023-05-05T02:41:22.296Z,62.94
2023-05-05T02:43:52.501Z,62.49
2023-05-05T02:46:20.734Z,62.30
2023-05-05T02:48:49.293Z,62.42
2023-05-05T02:51:17.508Z,62.63
2023-05-05T02:53:45.791Z,62.97
2023-05-05T02:56:19.748Z,63.24
2023-05-05T02:58:53.978Z,63.04
2023-05-05T03:01:40.451Z,63.98
2023-05-05T03:04:24.845Z,63.70
2023-05-05T03:06:58.537Z,64.30
2023-05-05T03:09:32.092Z,64.46
2023-05-05T03:12:10.456Z,64.40
2023-05-05T03:14:43.137Z,64.75
2023-05-05T03:17:13.714Z,64.67
2023-05-05T03:19:44.238Z,65.29
2023-05-05T03:22:12.980Z,64.96
2023-05-05T03:24:42.030Z,65.46
2023-05-05T03:27:10.264Z,65.81
2023-05-05T03:29:38.580Z,65.19
2023-05-05T03:32:07.474Z,65.01
2023-05-05T03:34:38.210Z,65.30
2023-05-05T03:37:06.449Z,65.26
2023-05-05T03:39:34.686Z,64.95
2023-05-05T03:42:02.897Z,65.28
2023-05-05T03:44:31.418Z,65.13
2023-05-05T03:46:59.607Z,65.47
2023-05-05T03:49:27.853Z,65.56
2023-05-05T03:51:56.403Z,65.62
2023-05-05T03:54:24.610Z,65.22
2023-05-05T03:56:52.786Z,65.01
2023-05-05T03:59:21.101Z,64.99
2023-05-05T04:01:50.732Z,64.92
2023-05-05T04:04:19.089Z,64.84
2023-05-05T04:06:47.439Z,64.62
2023-05-05T04:09:15.716Z,64.30
2023-05-05T04:11:43.933Z,64.42
2023-05-05T04:14:12.242Z,64.36
2023-05-05T04:16:40.602Z,64.25
2023-05-05T04:19:09.301Z,64.72
2023-05-05T04:21:37.564Z,64.04
2023-05-05T04:24:06.010Z,64.33
2023-05-05T04:26:34.295Z,64.34
2023-05-05T04:29:02.542Z,64.94
2023-05-05T04:31:31.567Z,64.58
2023-05-05T04:33:59.807Z,64.74
2023-05-05T04:36:28.298Z,64.62
2023-05-05T04:38:56.547Z,64.36
2023-05-05T04:41:24.843Z,64.17
2023-05-05T04:43:53.860Z,64.68
2023-05-05T04:46:22.746Z,64.54
2023-05-05T04:48:51.046Z,64.38
2023-05-05T04:51:19.243Z,64.68
2023-05-05T04:53:47.541Z,64.75
2023-05-05T04:56:15.888Z,65.03
2023-05-05T04:58:44.139Z,65.13
2023-05-05T05:01:12.363Z,64.88
2023-05-05T05:03:40.638Z,65.14
2023-05-05T05:06:08.890Z,65.07
2023-05-05T05:08:37.422Z,65.21
2023-05-05T05:11:05.649Z,65.48
2023-05-05T05:13:33.910Z,65.32
2023-05-05T05:16:03.155Z,65.35
2023-05-05T05:18:31.398Z,65.56
2023-05-05T05:20:59.649Z,65.21
2023-05-05T05:23:27.894Z,65.58
2023-05-05T05:25:56.716Z,65.41
2023-05-05T05:28:25.020Z,65.18
2023-05-05T05:30:53.708Z,65.62
2023-05-05T05:33:21.995Z,65.77
2023-05-05T05:35:50.210Z,65.36
2023-05-05T05:38:18.775Z,65.92
2023-05-05T05:40:47.278Z,65.95
2023-05-05T05:43:15.543Z,66.00
2023-05-05T05:45:44.024Z,66.23
2023-05-05T05:48:12.353Z,66.57
2023-05-05T05:50:40.641Z,66.60
2023-05-05T05:53:08.850Z,66.42
2023-05-05T05:55:37.079Z,65.67
2023-05-05T05:58:05.282Z,65.94
2023-05-05T06:00:33.516Z,65.59
2023-05-05T06:03:01.918Z,65.84
2023-05-05T06:05:30.296Z,66.05
2023-05-05T06:07:58.553Z,66.35
2023-05-05T06:10:28.381Z,66.33
2023-05-05T06:12:56.914Z,66.49
2023-05-05T06:15:26.421Z,66.29
2023-05-05T06:17:54.828Z,66.29
2023-05-05T06:20:23.889Z,66.65
2023-05-05T06:22:52.079Z,66.60
2023-05-05T06:25:20.271Z,66.23
2023-05-05T06:27:48.807Z,66.59
2023-05-05T06:30:17.177Z,66.31
2023-05-05T06:32:45.422Z,66.61
2023-05-05T06:35:14.129Z,66.73
2023-05-05T06:37:42.347Z,66.84
2023-05-05T06:40:11.377Z,66.63
2023-05-05T06:42:39.619Z,67.18
2023-05-05T06:45:08.415Z,66.83
2023-05-05T06:47:37.257Z,67.01
2023-05-05T06:50:06.000Z,66.90
2023-05-05T06:52:34.493Z,66.59
2023-05-05T06:55:02.845Z,66.91
2023-05-05T06:57:31.096Z,67.35
2023-05-05T06:59:59.382Z,67.28
2023-05-05T07:02:27.585Z,67.20
2023-05-05T07:04:56.280Z,67.81
2023-05-05T07:07:24.612Z,68.02
2023-05-05T07:09:53.037Z,68.08
2023-05-05T07:12:21.261Z,68.52
2023-05-05T07:14:49.776Z,68.44
2023-05-05T07:17:18.015Z,68.43
2023-05-05T07:19:46.325Z,68.85
2023-05-05T07:22:14.726Z,68.87
2023-05-05T07:24:42.970Z,69.28
2023-05-05T07:27:11.512Z,69.14
2023-05-05T07:29:39.704Z,69.19
2023-05-05T07:32:09.781Z,69.44
2023-05-05T07:34:38.876Z,69.03
2023-05-05T07:37:07.721Z,69.25
2023-05-05T07:39:35.890Z,69.37
2023-05-05T07:42:04.084Z,69.59
2023-05-05T07:44:32.589Z,69.74
2023-05-05T07:47:00.894Z,69.73
2023-05-05T07:49:29.137Z,69.89
2023-05-05T07:51:57.419Z,70.25
2023-05-05T07:54:25.612Z,70.47
2023-05-05T07:56:53.845Z,70.14
2023-05-05T07:59:22.487Z,70.49
2023-05-05T08:01:51.131Z,70.41
2023-05-05T08:04:20.318Z,70.45
2023-05-05T08:06:48.841Z,70.47
2023-05-05T08:09:17.116Z,70.41
2023-05-05T08:11:45.297Z,70.33
2023-05-05T08:14:13.532Z,70.94
2023-05-05T08:16:41.763Z,70.67
2023-05-05T08:19:14.847Z,70.61
2023-05-05T08:21:46.137Z,70.56
2023-05-05T08:24:14.624Z,70.71
2023-05-05T08:26:42.846Z,70.75
2023-05-05T08:29:11.044Z,71.17
2023-05-05T08:31:39.293Z,71.23
2023-05-05T08:34:08.085Z,71.14
2023-05-05T08:36:36.340Z,71.14
2023-05-05T08:39:04.620Z,71.40
2023-05-05T08:41:34.089Z,71.20
2023-05-05T08:44:03.017Z,71.17
2023-05-05T08:46:32.580Z,71.42
2023-05-05T08:49:02.403Z,71.21
2023-05-05T08:51:38.513Z,71.27
2023-05-05T08:54:08.066Z,71.32
2023-05-05T08:56:44.530Z,71.58
2023-05-05T08:59:14.488Z,71.84
2023-05-05T09:01:43.815Z,71.49
2023-05-05T09:04:12.407Z,71.43
2023-05-05T09:06:40.906Z,71.55
2023-05-05T09:09:10.381Z,71.71
2023-05-05T09:11:40.171Z,71.73
2023-05-05T09:14:08.394Z,71.74
2023-05-05T09:16:36.642Z,71.86
2023-05-05T09:19:07.806Z,71.67
2023-05-05T09:21:35.989Z,71.89
2023-05-05T09:24:12.450Z,71.93
2023-05-05T09:26:45.933Z,72.22
2023-05-05T09:29:21.525Z,72.05
2023-05-05T09:32:09.221Z,72.47
2023-05-05T09:34:37.553Z,72.41
2023-05-05T09:37:06.781Z,72.53
2023-05-05T09:39:35.046Z,72.45
2023-05-05T09:42:04.025Z,72.44
2023-05-05T09:44:36.805Z,72.65
2023-05-05T09:47:09.548Z,72.53
2023-05-05T09:49:43.317Z,72.38
2023-05-05T09:52:16.449Z,72.33
2023-05-05T09:54:45.571Z,72.35
2023-05-05T09:57:34.978Z,71.92
2023-05-05T10:00:05.223Z,72.12
2023-05-05T10:02:40.141Z,71.96
2023-05-05T10:05:13.606Z,72.28
2023-05-05T10:07:44.185Z,72.42
2023-05-05T10:10:14.868Z,72.38
2023-05-05T10:12:43.550Z,72.18
2023-05-05T10:15:13.177Z,72.02
2023-05-05T10:20:21.952Z,71.98
2023-05-05T10:22:57.315Z,72.25
2023-05-05T10:25:36.385Z,72.26
2023-05-05T10:28:07.987Z,71.68
2023-05-05T10:30:44.104Z,71.65
2023-05-05T10:35:58.177Z,71.77
2023-05-05T10:38:29.827Z,71.51
2023-05-05T10:41:00.386Z,71.79
2023-05-05T10:43:30.411Z,71.81
2023-05-05T10:45:59.259Z,71.68
2023-05-05T10:48:39.057Z,71.68
2023-05-05T10:51:27.435Z,71.54
2023-05-05T10:54:22.088Z,71.89
2023-05-05T10:56:51.001Z,72.10
2023-05-05T10:59:40.475Z,72.01
2023-05-05T11:02:27.586Z,72.35
2023-05-05T11:05:10.104Z,72.13
2023-05-05T11:07:39.163Z,71.68
2023-05-05T11:10:11.695Z,72.21
2023-05-05T11:13:03.278Z,72.08
2023-05-05T11:15:31.506Z,71.82
2023-05-05T11:18:07.088Z,72.05
2023-05-05T11:20:44.164Z,72.01
2023-05-05T11:23:13.461Z,72.09
2023-05-05T11:25:46.221Z,71.94
2023-05-05T11:28:15.604Z,72.36
2023-05-05T11:31:01.778Z,72.07
2023-05-05T11:33:38.512Z,72.15
2023-05-05T11:36:08.685Z,72.55
2023-05-05T11:38:54.474Z,72.03
2023-05-05T11:41:36.905Z,72.10
2023-05-05T11:44:13.275Z,72.44
2023-05-05T11:46:54.305Z,72.48
2023-05-05T11:49:28.681Z,72.62
2023-05-05T11:52:20.583Z,72.61
2023-05-05T11:54:49.932Z,72.42
2023-05-05T11:57:21.932Z,72.32
2023-05-05T12:00:06.564Z,72.92
2023-05-05T12:02:35.964Z,73.07
2023-05-05T12:05:04.952Z,73.26
2023-05-05T12:07:34.624Z,73.03
2023-05-05T12:10:02.935Z,72.94
2023-05-05T12:12:40.724Z,72.84
2023-05-05T12:15:10.696Z,73.30
2023-05-05T12:17:45.656Z,73.01
2023-05-05T12:20:14.374Z,72.93
2023-05-05T12:22:43.116Z,73.05
2023-05-05T12:25:11.768Z,73.25
2023-05-05T12:27:40.178Z,73.24
2023-05-05T12:30:14.614Z,73.27
2023-05-05T12:32:43.330Z,72.99
2023-05-05T12:35:12.670Z,73.17
2023-05-05T12:37:41.530Z,73.10
2023-05-05T12:40:45.296Z,72.70
2023-05-05T12:43:34.192Z,73.00
2023-05-05T12:46:11.436Z,72.90
2023-05-05T12:48:42.346Z,72.85
2023-05-05T12:51:26.448Z,73.36
2023-05-05T12:54:06.029Z,73.35
2023-05-05T12:56:38.751Z,73.17
2023-05-05T12:59:08.902Z,73.24
2023-05-05T13:01:38.715Z,73.12
2023-05-05T13:04:14.061Z,73.20
2023-05-05T13:06:44.865Z,73.19
2023-05-05T13:09:37.166Z,73.32
2023-05-05T13:12:05.887Z,73.49
2023-05-05T13:14:34.453Z,73.07
2023-05-05T13:17:02.789Z,73.30
2023-05-05T13:19:31.740Z,73.27
2023-05-05T13:22:00.305Z,73.01
2023-05-05T13:24:38.141Z,73.09
2023-05-05T13:27:15.354Z,73.06
2023-05-05T13:29:44.650Z,73.15
2023-05-05T13:32:13.027Z,73.43
2023-05-05T13:34:41.322Z,73.26
2023-05-05T13:37:09.610Z,73.17
2023-05-05T13:39:37.839Z,73.17
2023-05-05T13:42:06.178Z,73.46
2023-05-05T13:44:34.429Z,73.41
2023-05-05T13:47:02.747Z,73.50
2023-05-05T13:49:30.967Z,73.42
2023-05-05T13:51:59.413Z,73.42
2023-05-05T13:54:27.606Z,73.09
2023-05-05T13:56:55.800Z,73.05
2023-05-05T13:59:24.144Z,73.17
2023-05-05T14:01:52.383Z,73.28
2023-05-05T14:04:20.687Z,73.40
2023-05-05T14:06:49.167Z,73.16
2023-05-05T14:09:17.475Z,73.08
2023-05-05T14:11:45.774Z,73.25
2023-05-05T14:14:14.080Z,72.83
2023-05-05T14:16:42.301Z,73.12
2023-05-05T14:19:10.548Z,72.74
2023-05-05T14:21:39.077Z,72.79
2023-05-05T14:24:07.598Z,72.44
2023-05-05T14:26:35.801Z,72.40
2023-05-05T14:29:04.116Z,72.32
2023-05-05T14:31:32.607Z,72.81
2023-05-05T14:34:00.788Z,72.16
2023-05-05T14:36:29.083Z,72.42
2023-05-05T14:38:57.342Z,72.40
2023-05-05T14:41:25.820Z,72.49
2023-05-05T14:43:54.099Z,72.50
2023-05-05T14:46:22.631Z,72.62
2023-05-05T14:48:50.882Z,72.74
2023-05-05T14:51:19.203Z,72.59
2023-05-05T14:53:47.963Z,72.60
2023-05-05T14:56:16.441Z,72.40
2023-05-05T14:58:44.948Z,72.00
2023-05-05T15:01:13.184Z,71.77
2023-05-05T15:03:41.680Z,71.56
2023-05-05T15:06:10.232Z,71.81
2023-05-05T15:08:39.820Z,71.55
2023-05-05T15:11:08.129Z,71.72
2023-05-05T15:13:36.452Z,71.72
2023-05-05T15:16:04.828Z,71.62
2023-05-05T15:18:33.127Z,71.09
2023-05-05T15:21:01.382Z,71.43
2023-05-05T15:23:29.710Z,70.96
2023-05-05T15:25:58.229Z,70.80
2023-05-05T15:28:26.569Z,70.51
2023-05-05T15:30:54.972Z,70.94
2023-05-05T15:33:23.299Z,70.80
2023-05-05T15:35:51.530Z,70.15
2023-05-05T15:38:19.750Z,69.93
2023-05-05T15:40:50.178Z,69.97
2023-05-05T15:43:18.716Z,69.96
2023-05-05T15:45:47.332Z,69.65
2023-05-05T15:48:15.571Z,69.83
2023-05-05T15:50:43.864Z,69.82
2023-05-05T15:53:12.278Z,69.35
2023-05-05T15:55:41.544Z,69.08
2023-05-05T15:58:09.839Z,68.84
2023-05-05T16:00:38.065Z,68.93
2023-05-05T16:03:06.624Z,68.29
2023-05-05T16:05:34.892Z,68.23
2023-05-05T16:08:05.610Z,67.51
2023-05-05T16:10:33.820Z,67.08
2023-05-05T16:13:02.018Z,66.16
2023-05-05T16:15:30.295Z,66.08
2023-05-05T16:17:58.533Z,65.70
2023-05-05T16:20:26.786Z,64.99
2023-05-05T16:22:54.981Z,64.84
2023-05-05T16:25:24.313Z,64.99
2023-05-05T16:27:54.035Z,65.39
2023-05-05T16:30:22.354Z,65.04
2023-05-05T16:32:52.541Z,64.95
2023-05-05T16:35:20.971Z,64.86
2023-05-05T16:37:49.764Z,64.76
2023-05-05T16:40:17.939Z,65.08
2023-05-05T16:42:46.291Z,64.79
2023-05-05T16:45:14.716Z,64.80
2023-05-05T16:47:42.965Z,64.28
2023-05-05T16:50:11.622Z,63.61
2023-05-05T16:52:39.901Z,63.57
2023-05-05T16:55:08.516Z,63.12
2023-05-05T16:57:36.879Z,63.06
2023-05-05T17:00:10.123Z,62.85
2023-05-05T17:02:38.376Z,62.50
2023-05-05T17:05:07.268Z,61.48
2023-05-05T17:07:35.670Z,61.99
2023-05-05T17:10:03.996Z,62.09
2023-05-05T17:12:32.294Z,61.54
2023-05-05T17:15:00.729Z,61.00
2023-05-05T17:17:29.181Z,60.84
2023-05-05T17:19:57.478Z,59.68
2023-05-05T17:22:25.684Z,59.97
2023-05-05T17:24:53.904Z,59.93
2023-05-05T17:27:22.272Z,59.19
2023-05-05T17:29:50.511Z,59.09
2023-05-05T17:32:18.739Z,58.66
2023-05-05T17:34:47.306Z,58.76
2023-05-05T17:37:15.535Z,58.86
2023-05-05T17:39:43.715Z,58.54
2023-05-05T17:42:12.023Z,58.58
2023-05-05T17:44:40.286Z,58.30
2023-05-05T17:47:09.333Z,57.89
2023-05-05T17:49:37.584Z,57.87
2023-05-05T17:52:06.028Z,57.36
2023-05-05T17:54:34.281Z,57.20
2023-05-05T17:57:03.227Z,56.65
2023-05-05T17:59:32.964Z,56.77
2023-05-05T18:02:01.246Z,55.89
2023-05-05T18:04:29.446Z,55.50
2023-05-05T18:06:58.415Z,55.31
2023-05-05T18:09:27.528Z,55.04
2023-05-05T18:11:56.390Z,55.57
2023-05-05T18:14:25.506Z,55.01
2023-05-05T18:16:54.132Z,55.46
2023-05-05T18:19:24.410Z,54.88
2023-05-05T18:21:55.280Z,55.02
2023-05-05T18:24:23.545Z,54.73
2023-05-05T18:26:53.243Z,54.61
2023-05-05T18:29:22.690Z,53.74
2023-05-05T18:31:53.751Z,54.17
2023-05-05T18:34:22.374Z,54.00
2023-05-05T18:36:54.956Z,53.87
2023-05-05T18:39:23.224Z,53.77
2023-05-05T18:41:51.693Z,53.25
2023-05-05T18:44:20.982Z,53.22
2023-05-05T18:46:49.749Z,53.16
2023-05-05T18:49:18.141Z,52.82
2023-05-05T18:51:46.561Z,52.43
2023-05-05T18:54:14.786Z,52.42
2023-05-05T18:56:43.435Z,52.15
2023-05-05T18:59:11.665Z,51.67
2023-05-05T19:01:39.976Z,50.72
2023-05-05T19:04:18.822Z,50.25
2023-05-05T19:06:55.300Z,49.75
2023-05-05T19:09:23.494Z,49.70
2023-05-05T19:11:51.824Z,49.80
2023-05-05T19:14:20.043Z,49.73
2023-05-05T19:16:48.836Z,50.02
2023-05-05T19:19:17.074Z,50.09
2023-05-05T19:21:45.377Z,49.75
2023-05-05T19:24:13.666Z,50.17
2023-05-05T19:26:41.921Z,50.39
2023-05-05T19:29:10.140Z,50.11
2023-05-05T19:31:38.387Z,50.22
2023-05-05T19:34:07.076Z,49.39
2023-05-05T19:36:35.693Z,49.70
2023-05-05T19:39:05.652Z,49.11
2023-05-05T19:41:35.981Z,49.06
2023-05-05T19:44:04.220Z,49.19
2023-05-05T19:46:32.603Z,49.52
2023-05-05T19:49:00.858Z,49.41
2023-05-05T19:51:29.242Z,49.53
2023-05-05T19:53:57.509Z,49.56
2023-05-05T19:56:25.839Z,49.45
2023-05-05T19:58:59.675Z,49.55
2023-05-05T20:01:29.188Z,49.70
2023-05-05T20:03:58.126Z,49.86
2023-05-05T20:06:26.505Z,49.30
2023-05-05T20:08:56.003Z,49.39
2023-05-05T20:11:24.497Z,49.34
2023-05-05T20:13:53.825Z,49.02
2023-05-05T20:16:22.725Z,48.90
2023-05-05T20:18:51.847Z,48.77
2023-05-05T20:21:20.617Z,48.38
2023-05-05T20:23:49.430Z,48.14
2023-05-05T20:26:17.941Z,48.25
2023-05-05T20:28:46.686Z,48.23
2023-05-05T20:31:15.955Z,48.32
2023-05-05T20:33:44.282Z,48.20
2023-05-05T20:36:12.726Z,47.68
2023-05-05T20:38:41.078Z,48.21
2023-05-05T20:41:09.286Z,48.26
2023-05-05T20:43:37.986Z,48.21
2023-05-05T20:46:06.239Z,48.13
2023-05-05T20:48:34.421Z,47.96
2023-05-05T20:51:05.809Z,48.44
2023-05-05T20:53:34.303Z,48.42
2023-05-05T20:56:02.745Z,47.64
2023-05-05T20:58:31.423Z,47.88
2023-05-05T21:00:59.654Z,47.64
2023-05-05T21:03:27.942Z,47.98
2023-05-05T21:05:56.457Z,48.04
2023-05-05T21:08:24.687Z,47.68
2023-05-05T21:10:52.876Z,47.51
2023-05-05T21:13:21.194Z,47.20
2023-05-05T21:15:51.275Z,46.96
2023-05-05T21:18:19.521Z,46.91
2023-05-05T21:20:48.105Z,46.86
2023-05-05T21:23:16.300Z,46.18
2023-05-05T21:25:44.529Z,46.26
2023-05-05T21:28:12.770Z,45.99
2023-05-05T21:30:41.067Z,46.03
2023-05-05T21:33:09.616Z,46.22
2023-05-05T21:35:37.942Z,46.26
2023-05-05T21:38:06.373Z,46.17
2023-05-05T21:40:34.629Z,45.92
2023-05-05T21:43:02.834Z,46.10
2023-05-05T21:45:31.152Z,46.59
2023-05-05T21:47:59.484Z,45.96
2023-05-05T21:50:28.912Z,45.86
2023-05-05T21:52:57.805Z,45.58
2023-05-05T21:55:26.241Z,45.82
2023-05-05T21:57:54.465Z,45.62
2023-05-05T22:00:22.784Z,45.91
2023-05-05T22:02:51.145Z,46.06
2023-05-05T22:05:19.420Z,46.40
2023-05-05T22:07:47.830Z,46.54
2023-05-05T22:10:16.188Z,47.07
2023-05-05T22:12:44.502Z,47.48
2023-05-05T22:15:12.863Z,47.82
2023-05-05T22:17:41.806Z,48.15
2023-05-05T22:20:10.634Z,48.15
2023-05-05T22:22:39.021Z,48.48
2023-05-05T22:25:08.156Z,48.42
2023-05-05T22:27:36.640Z,48.31
2023-05-05T22:30:05.299Z,47.66
2023-05-05T22:32:33.852Z,47.60
2023-05-05T22:35:02.267Z,47.90
2023-05-05T22:37:30.584Z,48.35
2023-05-05T22:39:58.890Z,48.21
2023-05-05T22:42:27.653Z,48.69
2023-05-05T22:44:55.835Z,48.94
2023-05-05T22:47:24.149Z,49.27
2023-05-05T22:49:52.488Z,49.95
2023-05-05T22:52:20.819Z,49.68
2023-05-05T22:54:49.419Z,49.68
2023-05-05T22:57:17.686Z,49.91
2023-05-05T22:59:45.897Z,50.02
2023-05-05T23:02:14.444Z,49.89
2023-05-05T23:04:43.764Z,50.29
2023-05-05T23:07:15.093Z,50.64
2023-05-05T23:09:43.313Z,50.96
2023-05-05T23:12:11.651Z,51.42
2023-05-05T23:14:40.190Z,51.80
2023-05-05T23:17:08.501Z,51.31
2023-05-05T23:19:37.412Z,51.33
2023-05-05T23:22:05.946Z,51.04
2023-05-05T23:24:34.253Z,51.21
2023-05-05T23:27:03.101Z,50.85
2023-05-05T23:29:31.736Z,50.54
2023-05-05T23:32:00.168Z,50.57
2023-05-05T23:34:28.504Z,50.57
2023-05-05T23:36:56.926Z,50.42
2023-05-05T23:39:25.221Z,50.35
2023-05-05T23:41:53.588Z,49.86
2023-05-05T23:44:21.945Z,49.51
2023-05-05T23:46:50.180Z,49.58
2023-05-05T23:49:18.482Z,49.76
2023-05-05T23:51:47.552Z,49.69
2023-05-05T23:54:16.254Z,50.04
2023-05-05T23:56:44.589Z,50.12
2023-05-05T23:59:12.823Z,50.27
